Time;durP1;ratioP1;P1;durP2;ratioP2;P2;SDS_P1;SDS_P2;PMS_P1;PMS_P2;Temp;Humidity;BMP_temperature;BMP_pressure;BME280_temperature;BME280_humidity;BME280_pressure;Samples;Min_cycle;Max_cycle;Signal;HPM_P1;HPM_P2
2024/04/04 00:00:41;;;;;;;;;;;;;;;15.74;46.19;100765.03;5038882;28;1139;-56
2024/04/04 00:03:06;;;;;;;;;;;;;;;16.26;46.76;100770.31;5038569;28;1185;-57
2024/04/04 00:05:32;;;;;;;;;;;;;;;16.24;46.88;100761.59;5021175;28;1056;-50
2024/04/04 00:07:58;;;;;;;;;;;;;;;15.87;46.63;100757.06;5038776;28;1055;-57
2024/04/04 00:10:24;;;;;;;;;;;;;;;15.64;46.27;100752.41;5038603;28;1055;-56
2024/04/04 00:12:49;;;;;;;;;;;;;;;15.60;45.95;100750.06;5038349;28;1075;-57
2024/04/04 00:15:15;;;;;;;;;;;;;;;15.45;45.64;100746.69;5038478;28;1897;-56
2024/04/04 00:17:43;;;;;;;;;;;;;;;17.04;45.78;100755.88;5038099;28;1079;-54
2024/04/04 00:20:14;;;;;;;;;;;;;;;15.99;47.08;100748.28;5038509;28;1098;-52
2024/04/04 00:22:43;;;;;;;;;;;;;;;15.71;46.61;100749.31;5037799;28;1127;-55
2024/04/04 00:25:09;;;;;;;;;;;;;;;16.84;45.94;100739.59;5038364;28;1210;-56
2024/04/04 00:27:34;;;;;;;;;;;;;;;16.01;46.92;100748.16;5038288;28;1071;-53
2024/04/04 00:30:00;;;;;;;;;;;;;;;15.64;46.66;100739.16;5038179;28;1122;-56
2024/04/04 00:32:26;;;;;;;;;;;;;;;16.56;46.71;100747.81;5038014;28;1068;-56
2024/04/04 00:34:51;;;;;;;;;;;;;;;16.35;46.76;100745.75;5038200;28;1147;-56
2024/04/04 00:37:17;;;;;;;;;;;;;;;15.88;47.01;100742.84;5037755;28;1984;-56
2024/04/04 00:39:43;;;;;;;;;;;;;;;15.78;46.04;100745.31;5038051;28;1071;-55
2024/04/04 00:42:08;;;;;;;;;;;;;;;15.64;45.59;100739.16;5037523;28;1090;-53
2024/04/04 00:44:34;;;;;;;;;;;;;;;15.49;45.91;100735.75;5004449;28;1155;-56
2024/04/04 00:47:00;;;;;;;;;;;;;;;16.59;46.06;100736.09;5038087;28;1051;-52
2024/04/04 00:49:25;;;;;;;;;;;;;;;15.89;46.64;100736.56;5037802;28;1114;-52
2024/04/04 00:51:51;;;;;;;;;;;;;;;15.73;46.26;100737.63;5020154;28;1407;-53
2024/04/04 00:54:16;;;;;;;;;;;;;;;15.66;45.40;100733.72;5037567;28;1102;-52
2024/04/04 00:56:42;;;;;;;;;;;;;;;16.86;45.55;100737.69;5037461;28;1980;-52
2024/04/04 00:59:12;;;;;;;;;;;;;;;15.89;46.87;100729.47;5012815;28;1353;-56
2024/04/04 01:01:44;;;;;;;;;;;;;;;15.65;46.45;100726.72;5022737;28;1081;-57
2024/04/04 01:04:09;;;;;;;;;;;;;;;16.85;45.84;100718.22;5042070;28;1246;-56
2024/04/04 01:06:35;;;;;;;;;;;;;;;15.98;46.71;100724.47;5014153;28;1474;-56
2024/04/04 01:09:00;;;;;;;;;;;;;;;15.97;46.75;100726.28;5036246;28;1163;-51
2024/04/04 01:11:26;;;;;;;;;;;;;;;16.77;46.28;100732.09;5037576;28;1071;-54
2024/04/04 01:13:52;;;;;;;;;;;;;;;16.02;47.17;100716.22;5037509;28;1134;-52
2024/04/04 01:16:19;;;;;;;;;;;;;;;15.93;45.90;100716.00;5037029;28;1986;-55
2024/04/04 01:18:45;;;;;;;;;;;;;;;16.95;46.47;100707.75;5037297;28;1087;-54
2024/04/04 01:21:11;;;;;;;;;;;;;;;16.36;47.14;100720.06;5037208;28;1104;-51
2024/04/04 01:23:40;;;;;;;;;;;;;;;15.97;46.79;100712.16;5037332;28;1122;-55
2024/04/04 01:26:06;;;;;;;;;;;;;;;15.94;45.87;100712.38;5037206;28;1136;-47
2024/04/04 01:28:32;;;;;;;;;;;;;;;15.73;45.56;100702.34;5037479;28;1222;-49
2024/04/04 01:30:58;;;;;;;;;;;;;;;16.96;46.36;100700.66;5037086;28;1075;-50
2024/04/04 01:33:23;;;;;;;;;;;;;;;16.10;46.92;100693.59;5029571;28;1108;-48
2024/04/04 01:35:49;;;;;;;;;;;;;;;15.88;46.28;100692.44;5026075;28;1973;-51
2024/04/04 01:38:15;;;;;;;;;;;;;;;15.72;45.77;100682.06;5028035;28;1249;-50
2024/04/04 01:40:40;;;;;;;;;;;;;;;16.95;46.22;100683.84;5033377;28;1209;-47
2024/04/04 01:43:05;;;;;;;;;;;;;;;16.08;46.99;100685.72;5032028;28;1186;-54
2024/04/04 01:45:31;;;;;;;;;;;;;;;15.96;46.54;100684.78;5031189;28;1258;-53
2024/04/04 01:47:57;;;;;;;;;;;;;;;15.65;45.99;100685.16;5034723;28;1356;-54
2024/04/04 01:50:22;;;;;;;;;;;;;;;15.70;45.83;100689.28;5035659;28;1420;-51
2024/04/04 01:52:47;;;;;;;;;;;;;;;16.50;46.13;100680.06;5036993;28;1155;-47
2024/04/04 01:55:13;;;;;;;;;;;;;;;15.99;46.31;100691.69;5030852;28;1906;-50
2024/04/04 01:57:39;;;;;;;;;;;;;;;15.95;47.08;100666.31;5019995;28;1011;-50
2024/04/04 02:00:05;;;;;;;;;;;;;;;16.65;46.45;100674.56;5044660;28;1035;-49
2024/04/04 02:02:37;;;;;;;;;;;;;;;16.01;47.02;100676.53;5036516;28;1131;-51
2024/04/04 02:05:02;;;;;;;;;;;;;;;15.76;46.47;100681.75;5036318;28;1096;-52
2024/04/04 02:07:28;;;;;;;;;;;;;;;15.71;45.68;100690.97;5036804;28;1025;-51
2024/04/04 02:09:54;;;;;;;;;;;;;;;15.59;45.64;100690.03;5036625;28;1163;-49
2024/04/04 02:12:19;;;;;;;;;;;;;;;15.44;45.15;100682.19;5036743;28;1662;-51
2024/04/04 02:14:45;;;;;;;;;;;;;;;16.45;45.87;100687.50;5036425;28;1234;-51
2024/04/04 02:17:11;;;;;;;;;;;;;;;16.09;46.46;100687.44;5035666;28;1914;-50
2024/04/04 02:19:37;;;;;;;;;;;;;;;15.71;46.26;100690.97;5036552;28;1235;-50
2024/04/04 02:22:02;;;;;;;;;;;;;;;15.54;46.14;100691.22;5036607;28;1052;-48
2024/04/04 02:24:27;;;;;;;;;;;;;;;16.46;46.00;100697.19;5036127;28;1072;-52
2024/04/04 02:26:53;;;;;;;;;;;;;;;15.84;46.32;100699.78;5036272;28;1106;-48
2024/04/04 02:29:18;;;;;;;;;;;;;;;17.07;46.18;100689.19;5036256;28;1087;-49
2024/04/04 02:31:45;;;;;;;;;;;;;;;16.40;47.06;100709.09;5036264;28;992;-55
2024/04/04 02:34:10;;;;;;;;;;;;;;;15.91;47.15;100705.50;5036444;28;1154;-51
2024/04/04 02:36:36;;;;;;;;;;;;;;;15.79;46.40;100704.53;5033028;28;1906;-49
2024/04/04 02:39:02;;;;;;;;;;;;;;;15.62;46.02;100705.72;5036147;28;903;-52
2024/04/04 02:41:28;;;;;;;;;;;;;;;15.94;46.40;100702.63;5035968;28;1119;-55
2024/04/04 02:43:54;;;;;;;;;;;;;;;16.48;46.67;100702.38;5036679;28;1048;-49
2024/04/04 02:46:19;;;;;;;;;;;;;;;15.86;47.24;100700.50;5037119;28;1127;-51
2024/04/04 02:48:46;;;;;;;;;;;;;;;15.68;46.45;100692.06;5040457;28;1040;-52
2024/04/04 02:51:12;;;;;;;;;;;;;;;15.63;45.93;100697.66;5040435;28;1160;-53
2024/04/04 02:53:37;;;;;;;;;;;;;;;15.47;45.55;100697.88;5040272;28;841;-53
2024/04/04 02:56:03;;;;;;;;;;;;;;;16.71;45.84;100706.00;5039921;28;1913;-55
2024/04/04 02:58:28;;;;;;;;;;;;;;;15.88;46.44;100705.72;5040044;28;1190;-51
2024/04/04 03:00:54;;;;;;;;;;;;;;;15.65;46.28;100703.72;5037614;28;1079;-45
2024/04/04 03:03:20;;;;;;;;;;;;;;;15.58;45.61;100702.44;5040067;28;1067;-54
2024/04/04 03:05:45;;;;;;;;;;;;;;;15.72;46.13;100693.53;5039637;28;1223;-47
2024/04/04 03:08:11;;;;;;;;;;;;;;;16.44;46.08;100698.25;5040138;28;1025;-50
2024/04/04 03:10:37;;;;;;;;;;;;;;;15.86;46.17;100697.88;5040051;28;1162;-54
2024/04/04 03:13:03;;;;;;;;;;;;;;;15.64;45.80;100707.31;5039872;28;1131;-50
2024/04/04 03:15:28;;;;;;;;;;;;;;;16.53;46.28;100700.25;5039649;28;1984;-49
2024/04/04 03:17:54;;;;;;;;;;;;;;;16.13;46.58;100704.00;5039339;28;1179;-48
2024/04/04 03:20:19;;;;;;;;;;;;;;;15.70;46.49;100707.84;5039716;28;1100;-48
2024/04/04 03:22:46;;;;;;;;;;;;;;;15.58;46.08;100704.25;5039798;28;1075;-47
2024/04/04 03:25:11;;;;;;;;;;;;;;;15.57;45.34;100700.75;5039515;28;1207;-55
2024/04/04 03:27:37;;;;;;;;;;;;;;;15.37;45.47;100702.13;5039106;28;1436;-50
2024/04/04 03:30:02;;;;;;;;;;;;;;;16.67;45.58;100711.63;5039364;28;1078;-53
2024/04/04 03:32:28;;;;;;;;;;;;;;;15.80;46.69;100711.53;5036563;28;1102;-51
2024/04/04 03:34:53;;;;;;;;;;;;;;;15.59;46.11;100705.94;5034821;28;917;-55
2024/04/04 03:37:19;;;;;;;;;;;;;;;16.68;45.79;100713.34;5031175;28;1890;-49
2024/04/04 03:39:47;;;;;;;;;;;;;;;15.85;46.46;100703.28;5036940;28;1485;-50
2024/04/04 03:42:13;;;;;;;;;;;;;;;15.63;46.37;100699.47;5038779;28;933;-50
2024/04/04 03:44:38;;;;;;;;;;;;;;;15.49;45.95;100698.63;5038939;28;1111;-48
2024/04/04 03:47:04;;;;;;;;;;;;;;;15.41;45.40;100698.31;5037606;28;1115;-49
2024/04/04 03:49:29;;;;;;;;;;;;;;;15.77;45.91;100693.19;5037358;28;1253;-52
2024/04/04 03:51:55;;;;;;;;;;;;;;;16.55;45.62;100681.53;5039103;28;1091;-50
2024/04/04 03:54:20;;;;;;;;;;;;;;;15.74;46.63;100685.44;5034314;28;1346;-52
2024/04/04 03:56:46;;;;;;;;;;;;;;;15.60;46.28;100686.44;5053174;28;2002;-54
2024/04/04 03:59:11;;;;;;;;;;;;;;;15.48;45.72;100681.00;5048227;28;1134;-54
2024/04/04 04:01:37;;;;;;;;;;;;;;;17.04;45.61;100684.97;5037834;28;1143;-47
2024/04/04 04:04:03;;;;;;;;;;;;;;;15.97;46.86;100685.63;5038250;28;1091;-49
2024/04/04 04:06:28;;;;;;;;;;;;;;;15.72;46.36;100688.22;5038727;28;1175;-55
2024/04/04 04:08:54;;;;;;;;;;;;;;;17.36;43.55;100691.47;5050129;28;1303;-53
2024/04/04 04:11:19;;;;;;;;;;;;;;;16.98;44.39;100693.41;5044448;28;1343;-55
2024/04/04 04:13:47;;;;;;;;;;;;;;;16.77;44.82;100680.75;5049532;28;1066;-52
2024/04/04 04:16:13;;;;;;;;;;;;;;;16.58;45.22;100676.81;5043023;28;1914;-49
2024/04/04 04:18:39;;;;;;;;;;;;;;;16.46;45.57;100677.75;5043054;28;822;-49
2024/04/04 04:21:24;;;;;;;;;;;;;;;16.32;45.79;100682.25;5040006;28;1140;-48
2024/04/04 04:23:54;;;;;;;;;;;;;;;16.25;46.22;100686.31;5039910;28;1051;-52
2024/04/04 04:26:19;;;;;;;;;;;;;;;16.10;46.72;100685.63;5038147;28;949;-51
2024/04/04 04:28:45;;;;;;;;;;;;;;;16.05;46.69;100685.94;5038095;28;1044;-52
2024/04/04 04:31:25;;;;;;;;;;;;;;;15.98;46.96;100688.19;5037997;28;1228;-52
2024/04/04 04:33:50;;;;;;;;;;;;;;;15.86;47.48;100697.00;5039178;28;1112;-51
2024/04/04 04:36:16;;;;;;;;;;;;;;;17.29;44.12;100695.56;5043196;28;1902;-50
2024/04/04 04:38:41;;;;;;;;;;;;;;;17.17;44.33;100689.34;5039199;28;1287;-52
2024/04/04 04:41:08;;;;;;;;;;;;;;;16.59;45.64;100699.78;5039005;28;1208;-50
2024/04/04 04:43:33;;;;;;;;;;;;;;;16.33;46.30;100696.38;5041606;28;955;-51
2024/04/04 04:45:59;;;;;;;;;;;;;;;16.19;46.42;100692.94;5047730;28;1119;-54
2024/04/04 04:48:24;;;;;;;;;;;;;;;16.02;47.02;100702.94;5040272;28;1007;-53
2024/04/04 04:50:50;;;;;;;;;;;;;;;15.93;47.32;100703.59;5046462;28;1239;-51
2024/04/04 04:53:15;;;;;;;;;;;;;;;17.07;44.94;100707.78;5042579;28;1058;-56
2024/04/04 04:55:41;;;;;;;;;;;;;;;17.28;43.95;100707.16;5050909;28;1999;-50
2024/04/04 04:58:06;;;;;;;;;;;;;;;16.62;45.47;100704.88;5043206;28;1303;-54
2024/04/04 05:00:32;;;;;;;;;;;;;;;16.35;46.38;100711.22;5033736;28;1338;-54
2024/04/04 05:02:58;;;;;;;;;;;;;;;16.22;46.86;100711.28;5035629;28;1100;-54
2024/04/04 05:05:23;;;;;;;;;;;;;;;16.06;47.13;100708.03;5034728;28;1364;-52
2024/04/04 05:07:50;;;;;;;;;;;;;;;15.92;47.26;100717.78;5037295;28;1107;-50
2024/04/04 05:10:16;;;;;;;;;;;;;;;15.89;47.71;100720.66;5036443;28;1285;-50
2024/04/04 05:12:42;;;;;;;;;;;;;;;17.39;44.34;100723.13;5038267;28;921;-49
2024/04/04 05:15:07;;;;;;;;;;;;;;;17.19;44.51;100712.22;5041374;28;1150;-46
2024/04/04 05:17:33;;;;;;;;;;;;;;;16.57;46.04;100712.31;5041319;28;1910;-47
2024/04/04 05:19:59;;;;;;;;;;;;;;;16.37;46.44;100713.78;5039821;28;1258;-48
2024/04/04 05:22:29;;;;;;;;;;;;;;;16.17;46.94;100713.41;5037796;28;1505;-50
2024/04/04 05:24:56;;;;;;;;;;;;;;;16.06;47.52;100718.66;5035514;28;1032;-49
2024/04/04 05:27:22;;;;;;;;;;;;;;;15.90;47.51;100703.78;5038447;28;1060;-47
2024/04/04 05:29:47;;;;;;;;;;;;;;;17.06;45.42;100706.97;5027611;28;1325;-48
2024/04/04 05:32:13;;;;;;;;;;;;;;;17.21;44.74;100710.28;5047739;28;1181;-49
2024/04/04 05:34:40;;;;;;;;;;;;;;;16.59;46.20;100712.19;5039022;28;1131;-48
2024/04/04 05:37:05;;;;;;;;;;;;;;;16.25;46.97;100703.09;5037377;28;1910;-52
2024/04/04 05:39:31;;;;;;;;;;;;;;;16.12;47.44;100704.94;5029190;28;1182;-52
2024/04/04 05:41:56;;;;;;;;;;;;;;;16.22;47.12;100700.66;5046586;28;1164;-50
2024/04/04 05:44:22;;;;;;;;;;;;;;;17.70;43.83;100699.47;5043208;28;1191;-52
2024/04/04 05:46:48;;;;;;;;;;;;;;;17.06;45.07;100706.09;5036525;28;1150;-50
2024/04/04 05:49:13;;;;;;;;;;;;;;;16.59;46.33;100707.75;5036942;28;1000;-50
2024/04/04 05:51:39;;;;;;;;;;;;;;;16.36;46.82;100704.13;5039160;28;1093;-51
2024/04/04 05:54:04;;;;;;;;;;;;;;;16.17;47.58;100700.16;5043435;28;1283;-51
2024/04/04 05:56:30;;;;;;;;;;;;;;;16.10;47.75;100707.69;5038620;28;1906;-49
2024/04/04 05:58:56;;;;;;;;;;;;;;;15.96;48.03;100710.47;5036792;28;1107;-51
2024/04/04 06:01:22;;;;;;;;;;;;;;;17.29;45.21;100703.53;5040353;28;1103;-46
2024/04/04 06:03:48;;;;;;;;;;;;;;;17.25;44.78;100706.44;5044289;28;1120;-48
2024/04/04 06:06:13;;;;;;;;;;;;;;;16.67;46.19;100715.13;5041085;28;1011;-52
2024/04/04 06:08:39;;;;;;;;;;;;;;;16.38;46.80;100715.50;5036535;28;1190;-49
2024/04/04 06:11:05;;;;;;;;;;;;;;;16.20;47.54;100720.31;5036788;28;1167;-51
2024/04/04 06:13:30;;;;;;;;;;;;;;;16.11;47.66;100721.81;5023547;28;1317;-51
2024/04/04 06:15:56;;;;;;;;;;;;;;;15.98;47.83;100727.13;5035787;28;1922;-47
2024/04/04 06:18:22;;;;;;;;;;;;;;;17.23;45.48;100726.13;5023923;28;1141;-48
2024/04/04 06:20:47;;;;;;;;;;;;;;;17.17;45.16;100721.25;5040967;28;1175;-50
2024/04/04 06:23:13;;;;;;;;;;;;;;;16.57;46.51;100732.72;5036365;28;1044;-50
2024/04/04 06:25:38;;;;;;;;;;;;;;;16.35;47.04;100736.94;5036513;28;1106;-50
2024/04/04 06:28:04;;;;;;;;;;;;;;;16.22;47.40;100731.66;5023761;28;993;-50
2024/04/04 06:30:30;;;;;;;;;;;;;;;16.91;46.22;100729.38;5035931;28;1195;-52
2024/04/04 06:32:55;;;;;;;;;;;;;;;17.54;44.59;100738.84;5036544;28;1088;-49
2024/04/04 06:35:21;;;;;;;;;;;;;;;16.80;46.20;100735.50;5043207;28;1948;-50
2024/04/04 06:37:49;;;;;;;;;;;;;;;16.45;46.97;100734.47;5033221;28;943;-51
2024/04/04 06:40:14;;;;;;;;;;;;;;;16.28;47.63;100729.41;5039759;28;1478;-50
2024/04/04 06:42:40;;;;;;;;;;;;;;;16.19;47.69;100734.53;5046284;28;1071;-50
2024/04/04 06:45:06;;;;;;;;;;;;;;;16.05;47.99;100735.53;5040266;28;1044;-51
2024/04/04 06:47:32;;;;;;;;;;;;;;;16.65;46.99;100736.50;5028634;28;1194;-46
2024/04/04 06:49:57;;;;;;;;;;;;;;;17.77;44.30;100739.72;5017632;28;1233;-51
2024/04/04 06:52:23;;;;;;;;;;;;;;;16.97;46.17;100739.53;5032563;28;1170;-47
2024/04/04 06:54:48;;;;;;;;;;;;;;;16.58;47.17;100740.56;5035861;28;1039;-52
2024/04/04 06:57:14;;;;;;;;;;;;;;;16.37;47.72;100743.84;5027600;28;1914;-49
2024/04/04 06:59:39;;;;;;;;;;;;;;;16.23;48.00;100741.34;5048454;28;1407;-53
2024/04/04 07:02:05;;;;;;;;;;;;;;;16.67;47.36;100738.19;5029332;28;1096;-51
2024/04/04 07:04:30;;;;;;;;;;;;;;;17.66;44.60;100743.25;5024319;28;1354;-49
2024/04/04 07:06:56;;;;;;;;;;;;;;;16.88;46.38;100728.63;5029072;28;1120;-50
2024/04/04 07:09:22;;;;;;;;;;;;;;;16.56;47.21;100721.25;5026833;28;1349;-50
2024/04/04 07:11:47;;;;;;;;;;;;;;;16.33;47.73;100730.91;5033330;28;1156;-50
2024/04/04 07:14:13;;;;;;;;;;;;;;;16.26;47.99;100730.50;5032866;28;1428;-49
2024/04/04 07:16:38;;;;;;;;;;;;;;;16.14;48.34;100733.06;5043236;28;1906;-48
2024/04/04 07:19:04;;;;;;;;;;;;;;;16.01;48.31;100727.78;5033811;28;1373;-49
2024/04/04 07:21:30;;;;;;;;;;;;;;;15.87;48.75;100725.22;5044946;28;1044;-51
2024/04/04 07:23:55;;;;;;;;;;;;;;;17.32;45.95;100725.41;5040211;28;1023;-47
2024/04/04 07:26:21;;;;;;;;;;;;;;;17.18;45.65;100728.28;5040226;28;1416;-51
2024/04/04 07:28:46;;;;;;;;;;;;;;;16.65;46.97;100735.66;5038408;28;1316;-51
2024/04/04 07:31:12;;;;;;;;;;;;;;;16.38;47.82;100739.38;5042683;28;1066;-51
2024/04/04 07:33:37;;;;;;;;;;;;;;;16.26;48.13;100730.50;5038792;28;1146;-51
2024/04/04 07:36:03;;;;;;;;;;;;;;;16.09;48.36;100731.69;5038824;28;1910;-51
2024/04/04 07:38:29;;;;;;;;;;;;;;;16.00;48.81;100738.50;5043662;28;1357;-49
2024/04/04 07:40:54;;;;;;;;;;;;;;;17.27;45.91;100730.22;5032675;28;1328;-50
2024/04/04 07:43:19;;;;;;;;;;;;;;;17.35;45.27;100727.84;5025440;28;1107;-49
2024/04/04 07:45:45;;;;;;;;;;;;;;;16.74;47.06;100729.66;5020666;28;1143;-49
2024/04/04 07:48:13;;;;;;;;;;;;;;;16.45;47.58;100734.47;5005230;28;1131;-49
2024/04/04 07:50:40;;;;;;;;;;;;;;;16.31;48.19;100728.34;5031497;28;1028;-48
2024/04/04 07:53:06;;;;;;;;;;;;;;;16.19;48.27;100729.22;5038923;28;1043;-49
2024/04/04 07:55:32;;;;;;;;;;;;;;;16.03;48.89;100725.84;5038520;28;1983;-52
2024/04/04 07:57:57;;;;;;;;;;;;;;;15.96;49.01;100727.25;5037593;28;1237;-47
2024/04/04 08:00:24;;;;;;;;;;;;;;;16.10;49.09;100728.94;5037093;28;1365;-48
2024/04/04 08:02:50;;;;;;;;;;;;;;;17.55;45.54;100714.81;5034173;28;1024;-49
2024/04/04 08:05:15;;;;;;;;;;;;;;;17.09;46.28;100717.38;5027414;28;1156;-48
2024/04/04 08:07:41;;;;;;;;;;;;;;;16.60;47.67;100713.91;5030375;28;1127;-48
2024/04/04 08:10:07;;;;;;;;;;;;;;;16.40;47.78;100713.53;5038431;28;1128;-50
2024/04/04 08:12:35;;;;;;;;;;;;;;;16.24;48.56;100716.47;5041498;28;1349;-50
2024/04/04 08:15:12;;;;;;;;;;;;;;;16.12;48.79;100718.19;5038290;28;1079;-47
2024/04/04 08:17:40;;;;;;;;;;;;;;;16.03;49.04;100717.06;5051397;28;1918;-46
2024/04/04 08:20:08;;;;;;;;;;;;;;;16.87;47.45;100712.81;5042669;28;1193;-47
2024/04/04 08:22:34;;;;;;;;;;;;;;;17.65;45.26;100703.47;5038446;28;1175;-48
2024/04/04 08:24:59;;;;;;;;;;;;;;;16.79;47.28;100710.72;5030455;28;975;-52
2024/04/04 08:27:25;;;;;;;;;;;;;;;16.53;47.73;100710.88;5038874;28;864;-48
2024/04/04 08:29:51;;;;;;;;;;;;;;;16.26;48.30;100703.94;5037707;28;1051;-50
2024/04/04 08:32:17;;;;;;;;;;;;;;;16.22;48.78;100698.00;5038289;28;1036;-51
2024/04/04 08:34:43;;;;;;;;;;;;;;;16.10;49.20;100699.72;5037604;28;1179;-48
2024/04/04 08:37:08;;;;;;;;;;;;;;;16.02;49.52;100702.94;5036413;28;1972;-50
2024/04/04 08:39:34;;;;;;;;;;;;;;;15.90;49.29;100695.81;5037409;28;1221;-47
2024/04/04 08:42:00;;;;;;;;;;;;;;;16.43;48.56;100696.56;5036395;28;1329;-53
2024/04/04 08:44:25;;;;;;;;;;;;;;;17.69;45.54;100694.25;5028552;28;1056;-50
2024/04/04 08:46:51;;;;;;;;;;;;;;;16.89;47.03;100694.94;5036775;28;1286;-49
2024/04/04 08:49:17;;;;;;;;;;;;;;;16.53;48.25;100694.94;5025535;28;1330;-49
2024/04/04 08:51:43;;;;;;;;;;;;;;;16.35;48.47;100689.16;5020042;28;1258;-49
2024/04/04 08:54:09;;;;;;;;;;;;;;;16.14;49.07;100687.97;5037478;28;1278;-46
2024/04/04 08:56:35;;;;;;;;;;;;;;;17.14;47.14;100685.13;5019462;28;1902;-50
2024/04/04 08:59:01;;;;;;;;;;;;;;;17.23;46.36;100691.56;5034433;28;2190;-48
2024/04/04 09:01:26;;;;;;;;;;;;;;;16.65;47.75;100687.84;5036569;28;1029;-48
2024/04/04 09:03:52;;;;;;;;;;;;;;;16.44;48.36;100690.28;5037524;28;1104;-49
2024/04/04 09:06:19;;;;;;;;;;;;;;;16.22;48.98;100692.69;5036770;28;1095;-50
2024/04/04 09:08:45;;;;;;;;;;;;;;;16.19;49.21;100684.09;5037065;28;1251;-49
2024/04/04 09:11:11;;;;;;;;;;;;;;;16.05;49.25;100682.47;5026566;28;1270;-49
2024/04/04 09:13:37;;;;;;;;;;;;;;;15.95;49.73;100685.72;5034468;28;957;-48
2024/04/04 09:16:03;;;;;;;;;;;;;;;17.33;46.79;100681.91;5037027;28;1910;-49
2024/04/04 09:18:28;;;;;;;;;;;;;;;17.29;46.61;100675.13;5038648;28;1280;-49
2024/04/04 09:20:57;;;;;;;;;;;;;;;16.71;47.69;100682.09;5047710;28;1442;-49
2024/04/04 09:23:22;;;;;;;;;;;;;;;16.47;48.46;100677.63;5042770;28;1056;-51
2024/04/04 09:25:48;;;;;;;;;;;;;;;16.28;49.04;100667.53;5037195;28;1194;-49
2024/04/04 09:28:18;;;;;;;;;;;;;;;16.16;49.10;100664.78;5036816;28;2415;-52
2024/04/04 09:30:44;;;;;;;;;;;;;;;16.11;49.26;100663.44;5016875;28;1136;-49
2024/04/04 09:33:10;;;;;;;;;;;;;;;16.03;49.53;100662.19;5049828;28;1087;-53
2024/04/04 09:35:36;;;;;;;;;;;;;;;17.40;46.59;100657.50;5028418;28;1914;-51
2024/04/04 09:38:01;;;;;;;;;;;;;;;17.17;46.63;100660.97;5018221;28;1330;-51
2024/04/04 09:40:27;;;;;;;;;;;;;;;16.71;48.23;100655.53;5036291;28;1318;-51
2024/04/04 09:42:53;;;;;;;;;;;;;;;16.43;48.62;100654.94;5036704;28;1031;-48
2024/04/04 09:45:18;;;;;;;;;;;;;;;16.26;48.89;100659.69;5036477;28;1151;-47
2024/04/04 09:47:44;;;;;;;;;;;;;;;16.17;49.42;100660.34;5036761;28;1100;-48
2024/04/04 09:50:10;;;;;;;;;;;;;;;16.08;49.48;100659.19;5036879;28;1059;-49
2024/04/04 09:52:40;;;;;;;;;;;;;;;16.00;49.47;100662.41;5018793;28;1103;-49
2024/04/04 09:55:06;;;;;;;;;;;;;;;17.23;47.02;100654.34;5035752;28;1013;-48
2024/04/04 09:57:32;;;;;;;;;;;;;;;16.99;47.17;100650.78;5034086;28;2486;-54
2024/04/04 10:00:02;;;;;;;;;;;;;;;16.51;48.33;100647.25;5032844;28;1540;-48
2024/04/04 10:02:36;;;;;;;;;;;;;;;16.30;49.13;100644.34;5036328;28;1088;-46
2024/04/04 10:05:12;;;;;;;;;;;;;;;16.19;49.27;100647.81;5036330;28;1004;-45
2024/04/04 10:07:38;;;;;;;;;;;;;;;16.08;49.67;100651.22;5035885;28;1068;-53
2024/04/04 10:10:03;;;;;;;;;;;;;;;16.24;49.56;100639.50;5036343;28;1051;-48
2024/04/04 10:12:39;;;;;;;;;;;;;;;17.68;46.19;100639.38;5018317;28;1332;-46
2024/04/04 10:15:08;;;;;;;;;;;;;;;16.95;47.41;100633.34;5035867;28;1634;-48
2024/04/04 10:17:33;;;;;;;;;;;;;;;16.55;48.57;100631.91;5035810;28;1975;-47
2024/04/04 10:19:59;;;;;;;;;;;;;;;16.34;49.07;100631.72;5017697;28;1263;-48
2024/04/04 10:22:25;;;;;;;;;;;;;;;16.23;49.32;100621.91;5030222;28;1079;-47
2024/04/04 10:24:59;;;;;;;;;;;;;;;16.13;49.59;100627.03;5035323;28;956;-51
2024/04/04 10:27:24;;;;;;;;;;;;;;;16.13;49.66;100609.28;5024986;28;2442;-50
2024/04/04 10:29:50;;;;;;;;;;;;;;;17.50;46.66;100613.25;5022229;28;1083;-51
2024/04/04 10:32:17;;;;;;;;;;;;;;;17.16;47.08;100621.22;5023983;28;1091;-52
2024/04/04 10:34:43;;;;;;;;;;;;;;;16.71;48.24;100615.69;5043092;28;1071;-47
2024/04/04 10:37:13;;;;;;;;;;;;;;;16.50;48.75;100618.97;5025519;28;1914;-47
2024/04/04 10:39:39;;;;;;;;;;;;;;;16.33;49.08;100611.44;5025577;28;1055;-49
2024/04/04 10:42:05;;;;;;;;;;;;;;;16.19;49.57;100602.69;5038771;28;1298;-52
2024/04/04 10:44:30;;;;;;;;;;;;;;;16.14;49.31;100612.78;5012752;28;1353;-48
2024/04/04 10:46:56;;;;;;;;;;;;;;;16.06;49.57;100613.38;5008495;28;1095;-50
2024/04/04 10:49:27;;;;;;;;;;;;;;;16.01;49.84;100596.94;5035649;28;1325;-45
2024/04/04 10:51:59;;;;;;;;;;;;;;;16.31;49.38;100592.13;5036179;28;1214;-49
2024/04/04 10:54:25;;;;;;;;;;;;;;;17.66;46.24;100609.38;5035166;28;1318;-45
2024/04/04 10:56:51;;;;;;;;;;;;;;;16.89;47.77;100601.94;5040115;28;1984;-49
2024/04/04 10:59:18;;;;;;;;;;;;;;;16.51;48.66;100609.22;5035229;28;2592;-47
2024/04/04 11:01:50;;;;;;;;;;;;;;;16.32;49.20;100607.06;5022084;28;1147;-49
2024/04/04 11:04:18;;;;;;;;;;;;;;;16.19;49.39;100604.47;5034253;28;1144;-48
2024/04/04 11:06:44;;;;;;;;;;;;;;;16.13;49.55;100603.97;5036959;28;1339;-50
2024/04/04 11:09:16;;;;;;;;;;;;;;;15.99;49.82;100614.75;5044194;28;1267;-47
2024/04/04 11:11:59;;;;;;;;;;;;;;;16.89;48.02;100607.25;5032482;28;1310;-48
2024/04/04 11:14:25;;;;;;;;;;;;;;;17.51;46.36;100612.28;5035137;28;985;-44
2024/04/04 11:16:51;;;;;;;;;;;;;;;16.77;48.14;100607.25;5033266;28;1917;-44
2024/04/04 11:19:16;;;;;;;;;;;;;;;16.52;48.68;100611.75;5045287;28;1157;-47
2024/04/04 11:21:42;;;;;;;;;;;;;;;16.35;49.36;100599.72;5055344;28;1146;-48
2024/04/04 11:24:08;;;;;;;;;;;;;;;16.30;49.07;100601.06;5031453;28;1336;-50
2024/04/04 11:26:33;;;;;;;;;;;;;;;16.16;49.52;100597.59;5033251;28;1134;-47
2024/04/04 11:28:59;;;;;;;;;;;;;;;16.53;49.28;100596.69;5039108;28;2596;-47
2024/04/04 11:31:25;;;;;;;;;;;;;;;17.72;46.09;100592.91;5039171;28;1032;-47
2024/04/04 11:33:51;;;;;;;;;;;;;;;16.98;47.58;100600.41;5026020;28;1091;-46
2024/04/04 11:36:16;;;;;;;;;;;;;;;16.59;48.65;100593.56;5038650;28;1984;-49
2024/04/04 11:38:42;;;;;;;;;;;;;;;16.48;48.87;100597.00;5047327;28;1052;-50
2024/04/04 11:41:07;;;;;;;;;;;;;;;16.33;49.18;100593.69;5045991;28;1006;-47
2024/04/04 11:43:34;;;;;;;;;;;;;;;16.17;49.65;100580.72;5038352;28;1091;-47
2024/04/04 11:46:01;;;;;;;;;;;;;;;16.83;48.44;100582.00;5038320;28;939;-47
2024/04/04 11:48:26;;;;;;;;;;;;;;;17.62;46.30;100583.03;5042322;28;1260;-47
2024/04/04 11:50:52;;;;;;;;;;;;;;;16.93;47.78;100576.00;5044204;28;920;-51
2024/04/04 11:53:18;;;;;;;;;;;;;;;16.61;48.72;100580.16;5041887;28;1044;-51
2024/04/04 11:55:43;;;;;;;;;;;;;;;16.37;49.36;100575.72;5038555;28;1978;-47
2024/04/04 11:58:10;;;;;;;;;;;;;;;16.25;49.50;100573.03;5038109;28;2520;-48
2024/04/04 12:00:35;;;;;;;;;;;;;;;16.20;49.86;100563.72;5038172;28;1080;-49
2024/04/04 12:03:03;;;;;;;;;;;;;;;16.06;50.09;100570.91;5037911;28;1007;-48
2024/04/04 12:05:30;;;;;;;;;;;;;;;17.30;47.40;100567.00;5038441;28;1035;-51
2024/04/04 12:07:56;;;;;;;;;;;;;;;17.39;47.00;100574.22;5038971;28;1529;-52
2024/04/04 12:10:22;;;;;;;;;;;;;;;16.76;48.56;100576.34;5037233;28;1238;-50
2024/04/04 12:12:47;;;;;;;;;;;;;;;16.55;49.11;100576.13;5038138;28;1084;-53
2024/04/04 12:15:13;;;;;;;;;;;;;;;16.36;49.47;100569.59;5037554;28;1621;-48
2024/04/04 12:17:39;;;;;;;;;;;;;;;16.23;49.68;100569.63;5039076;28;1975;-47
2024/04/04 12:20:09;;;;;;;;;;;;;;;16.10;50.13;100566.22;5036833;28;1024;-48
2024/04/04 12:22:35;;;;;;;;;;;;;;;16.23;49.95;100566.16;5041372;28;1133;-49
2024/04/04 12:25:01;;;;;;;;;;;;;;;17.66;46.77;100570.31;5037986;28;1093;-46
2024/04/04 12:27:26;;;;;;;;;;;;;;;17.19;47.49;100560.69;5036405;28;2521;-50
2024/04/04 12:29:52;;;;;;;;;;;;;;;16.73;48.59;100559.78;5037640;28;1436;-50
2024/04/04 12:32:17;;;;;;;;;;;;;;;16.49;49.48;100556.22;5036769;28;1266;-53
2024/04/04 12:34:43;;;;;;;;;;;;;;;16.43;49.13;100555.84;5034401;28;1060;-47
2024/04/04 12:37:09;;;;;;;;;;;;;;;16.23;49.79;100550.22;5030683;28;1906;-50
2024/04/04 12:39:35;;;;;;;;;;;;;;;16.89;48.84;100557.63;5032665;28;1506;-51
2024/04/04 12:42:00;;;;;;;;;;;;;;;17.66;46.47;100562.34;5036615;28;1105;-45